sensor_id;sensor_type;location;lat;lon;timestamp;P1;durP1;ratioP1;P2;durP2;ratioP2
23250;SDS011;11794;49.730;10.088;2023-05-15T00:00:12;2.20;;;0.50;;
23250;SDS011;11794;49.730;10.088;2023-05-15T00:02:39;1.27;;;0.40;;
23250;SDS011;11794;49.730;10.088;2023-05-15T00:05:07;0.90;;;0.20;;
23250;SDS011;11794;49.730;10.088;2023-05-15T00:07:33;2.03;;;0.65;;
23250;SDS011;11794;49.730;10.088;2023-05-15T00:09:59;1.60;;;0.47;;
23250;SDS011;11794;49.730;10.088;2023-05-15T00:12:24;2.30;;;0.40;;
23250;SDS011;11794;49.730;10.088;2023-05-15T00:14:50;1.23;;;0.40;;
23250;SDS011;11794;49.730;10.088;2023-05-15T00:17:16;1.33;;;0.53;;
23250;SDS011;11794;49.730;10.088;2023-05-15T00:19:41;2.03;;;0.33;;
23250;SDS011;11794;49.730;10.088;2023-05-15T00:22:07;0.75;;;0.20;;
23250;SDS011;11794;49.730;10.088;2023-05-15T00:24:32;0.90;;;0.20;;
23250;SDS011;11794;49.730;10.088;2023-05-15T00:26:59;2.60;;;0.25;;
23250;SDS011;11794;49.730;10.088;2023-05-15T00:29:25;1.13;;;0.20;;
23250;SDS011;11794;49.730;10.088;2023-05-15T00:31:50;0.77;;;0.30;;
23250;SDS011;11794;49.730;10.088;2023-05-15T00:34:16;0.93;;;0.37;;
23250;SDS011;11794;49.730;10.088;2023-05-15T00:36:41;1.85;;;0.25;;
23250;SDS011;11794;49.730;10.088;2023-05-15T00:39:07;0.90;;;0.20;;
23250;SDS011;11794;49.730;10.088;2023-05-15T00:41:33;0.80;;;0.30;;
23250;SDS011;11794;49.730;10.088;2023-05-15T00:44:01;0.73;;;0.20;;
23250;SDS011;11794;49.730;10.088;2023-05-15T00:46:27;2.13;;;0.35;;
23250;SDS011;11794;49.730;10.088;2023-05-15T00:48:55;1.15;;;0.40;;
23250;SDS011;11794;49.730;10.088;2023-05-15T00:51:22;1.90;;;0.90;;
23250;SDS011;11794;49.730;10.088;2023-05-15T00:53:48;1.10;;;0.20;;
23250;SDS011;11794;49.730;10.088;2023-05-15T00:56:17;2.13;;;0.50;;
23250;SDS011;11794;49.730;10.088;2023-05-15T00:58:47;4.18;;;0.50;;
23250;SDS011;11794;49.730;10.088;2023-05-15T01:01:14;1.60;;;0.52;;
23250;SDS011;11794;49.730;10.088;2023-05-15T01:03:41;0.73;;;0.30;;
23250;SDS011;11794;49.730;10.088;2023-05-15T01:06:07;1.58;;;0.45;;
23250;SDS011;11794;49.730;10.088;2023-05-15T01:08:42;1.23;;;0.33;;
23250;SDS011;11794;49.730;10.088;2023-05-15T01:11:13;0.95;;;0.20;;
23250;SDS011;11794;49.730;10.088;2023-05-15T01:13:39;1.60;;;0.38;;
23250;SDS011;11794;49.730;10.088;2023-05-15T01:16:06;3.17;;;0.43;;
23250;SDS011;11794;49.730;10.088;2023-05-15T01:18:32;1.63;;;0.30;;
23250;SDS011;11794;49.730;10.088;2023-05-15T01:23:45;1.60;;;0.40;;
23250;SDS011;11794;49.730;10.088;2023-05-15T01:29:40;0.75;;;0.10;;
23250;SDS011;11794;49.730;10.088;2023-05-15T01:32:17;2.35;;;0.32;;
23250;SDS011;11794;49.730;10.088;2023-05-15T01:35:22;0.63;;;0.10;;
23250;SDS011;11794;49.730;10.088;2023-05-15T01:38:02;1.42;;;0.30;;
23250;SDS011;11794;49.730;10.088;2023-05-15T01:40:46;1.60;;;0.45;;
23250;SDS011;11794;49.730;10.088;2023-05-15T01:43:17;0.93;;;0.43;;
23250;SDS011;11794;49.730;10.088;2023-05-15T01:45:46;1.30;;;0.20;;
23250;SDS011;11794;49.730;10.088;2023-05-15T01:48:12;1.23;;;0.17;;
23250;SDS011;11794;49.730;10.088;2023-05-15T01:50:38;0.20;;;0.00;;
23250;SDS011;11794;49.730;10.088;2023-05-15T01:53:06;2.03;;;0.30;;
23250;SDS011;11794;49.730;10.088;2023-05-15T01:55:33;2.30;;;0.63;;
23250;SDS011;11794;49.730;10.088;2023-05-15T01:57:59;0.75;;;0.10;;
23250;SDS011;11794;49.730;10.088;2023-05-15T02:00:26;2.10;;;0.50;;
23250;SDS011;11794;49.730;10.088;2023-05-15T02:02:52;0.90;;;0.30;;
23250;SDS011;11794;49.730;10.088;2023-05-15T02:05:18;1.83;;;0.30;;
23250;SDS011;11794;49.730;10.088;2023-05-15T02:07:44;1.17;;;0.40;;
23250;SDS011;11794;49.730;10.088;2023-05-15T02:10:11;0.55;;;0.20;;
23250;SDS011;11794;49.730;10.088;2023-05-15T02:12:38;1.50;;;0.28;;
23250;SDS011;11794;49.730;10.088;2023-05-15T02:15:06;3.05;;;0.82;;
23250;SDS011;11794;49.730;10.088;2023-05-15T02:17:33;0.90;;;0.20;;
23250;SDS011;11794;49.730;10.088;2023-05-15T02:19:59;0.80;;;0.20;;
23250;SDS011;11794;49.730;10.088;2023-05-15T02:22:24;0.60;;;0.20;;
23250;SDS011;11794;49.730;10.088;2023-05-15T02:24:50;0.70;;;0.22;;
23250;SDS011;11794;49.730;10.088;2023-05-15T02:27:32;0.43;;;0.17;;
23250;SDS011;11794;49.730;10.088;2023-05-15T02:35:26;1.00;;;0.30;;
23250;SDS011;11794;49.730;10.088;2023-05-15T02:38:08;0.60;;;0.25;;
23250;SDS011;11794;49.730;10.088;2023-05-15T02:40:37;1.27;;;0.30;;
23250;SDS011;11794;49.730;10.088;2023-05-15T02:43:04;1.50;;;0.50;;
23250;SDS011;11794;49.730;10.088;2023-05-15T02:45:31;1.80;;;0.30;;
23250;SDS011;11794;49.730;10.088;2023-05-15T02:47:58;1.95;;;0.38;;
23250;SDS011;11794;49.730;10.088;2023-05-15T02:50:24;0.80;;;0.30;;
23250;SDS011;11794;49.730;10.088;2023-05-15T02:52:50;1.05;;;0.47;;
23250;SDS011;11794;49.730;10.088;2023-05-15T02:55:16;0.63;;;0.20;;
23250;SDS011;11794;49.730;10.088;2023-05-15T02:57:41;0.80;;;0.20;;
23250;SDS011;11794;49.730;10.088;2023-05-15T03:00:07;1.02;;;0.22;;
23250;SDS011;11794;49.730;10.088;2023-05-15T03:02:35;0.70;;;0.20;;
23250;SDS011;11794;49.730;10.088;2023-05-15T03:05:01;1.03;;;0.20;;
23250;SDS011;11794;49.730;10.088;2023-05-15T03:07:27;1.90;;;0.80;;
23250;SDS011;11794;49.730;10.088;2023-05-15T03:09:53;1.03;;;0.30;;
23250;SDS011;11794;49.730;10.088;2023-05-15T03:12:18;0.73;;;0.10;;
23250;SDS011;11794;49.730;10.088;2023-05-15T03:14:43;0.47;;;0.10;;
23250;SDS011;11794;49.730;10.088;2023-05-15T03:17:09;0.70;;;0.30;;
23250;SDS011;11794;49.730;10.088;2023-05-15T03:19:35;0.20;;;0.10;;
23250;SDS011;11794;49.730;10.088;2023-05-15T03:22:00;0.77;;;0.30;;
23250;SDS011;11794;49.730;10.088;2023-05-15T03:24:26;0.77;;;0.30;;
23250;SDS011;11794;49.730;10.088;2023-05-15T03:26:51;0.82;;;0.28;;
23250;SDS011;11794;49.730;10.088;2023-05-15T03:29:17;2.00;;;0.30;;
23250;SDS011;11794;49.730;10.088;2023-05-15T03:31:42;1.73;;;0.60;;
23250;SDS011;11794;49.730;10.088;2023-05-15T03:34:07;1.33;;;0.40;;
23250;SDS011;11794;49.730;10.088;2023-05-15T03:36:33;2.63;;;0.70;;
23250;SDS011;11794;49.730;10.088;2023-05-15T03:38:59;2.70;;;1.20;;
23250;SDS011;11794;49.730;10.088;2023-05-15T03:41:24;4.63;;;0.70;;
23250;SDS011;11794;49.730;10.088;2023-05-15T03:43:51;3.78;;;0.90;;
23250;SDS011;11794;49.730;10.088;2023-05-15T03:46:17;6.30;;;1.43;;
23250;SDS011;11794;49.730;10.088;2023-05-15T03:48:42;1.50;;;0.47;;
23250;SDS011;11794;49.730;10.088;2023-05-15T03:51:08;1.80;;;0.60;;
23250;SDS011;11794;49.730;10.088;2023-05-15T03:53:33;2.53;;;0.73;;
23250;SDS011;11794;49.730;10.088;2023-05-15T03:55:59;2.30;;;0.97;;
23250;SDS011;11794;49.730;10.088;2023-05-15T03:58:24;2.30;;;0.85;;
23250;SDS011;11794;49.730;10.088;2023-05-15T04:00:50;0.97;;;0.33;;
23250;SDS011;11794;49.730;10.088;2023-05-15T04:03:15;1.57;;;0.37;;
23250;SDS011;11794;49.730;10.088;2023-05-15T04:05:41;1.45;;;0.30;;
23250;SDS011;11794;49.730;10.088;2023-05-15T04:08:06;1.47;;;0.40;;
23250;SDS011;11794;49.730;10.088;2023-05-15T04:10:34;1.63;;;0.60;;
23250;SDS011;11794;49.730;10.088;2023-05-15T04:12:59;2.30;;;0.63;;
23250;SDS011;11794;49.730;10.088;2023-05-15T04:15:25;0.97;;;0.50;;
23250;SDS011;11794;49.730;10.088;2023-05-15T04:17:53;1.58;;;0.40;;
23250;SDS011;11794;49.730;10.088;2023-05-15T04:20:20;1.38;;;0.35;;
23250;SDS011;11794;49.730;10.088;2023-05-15T04:22:46;4.32;;;0.80;;
23250;SDS011;11794;49.730;10.088;2023-05-15T04:25:12;1.30;;;0.20;;
23250;SDS011;11794;49.730;10.088;2023-05-15T04:27:39;1.10;;;0.32;;
23250;SDS011;11794;49.730;10.088;2023-05-15T04:30:05;2.35;;;0.57;;
23250;SDS011;11794;49.730;10.088;2023-05-15T04:32:31;2.53;;;0.73;;
23250;SDS011;11794;49.730;10.088;2023-05-15T04:35:02;0.57;;;0.17;;
23250;SDS011;11794;49.730;10.088;2023-05-15T04:37:36;0.40;;;0.10;;
23250;SDS011;11794;49.730;10.088;2023-05-15T04:40:02;1.77;;;0.40;;
23250;SDS011;11794;49.730;10.088;2023-05-15T04:42:28;1.40;;;0.30;;
23250;SDS011;11794;49.730;10.088;2023-05-15T04:44:53;1.52;;;0.30;;
23250;SDS011;11794;49.730;10.088;2023-05-15T04:47:19;0.70;;;0.27;;
23250;SDS011;11794;49.730;10.088;2023-05-15T04:49:45;1.40;;;0.45;;
23250;SDS011;11794;49.730;10.088;2023-05-15T04:52:12;1.55;;;0.35;;
23250;SDS011;11794;49.730;10.088;2023-05-15T04:54:37;2.07;;;0.57;;
23250;SDS011;11794;49.730;10.088;2023-05-15T04:57:03;1.30;;;0.40;;
23250;SDS011;11794;49.730;10.088;2023-05-15T04:59:29;0.67;;;0.20;;
23250;SDS011;11794;49.730;10.088;2023-05-15T05:01:54;1.35;;;0.40;;
23250;SDS011;11794;49.730;10.088;2023-05-15T05:04:20;2.85;;;0.52;;
23250;SDS011;11794;49.730;10.088;2023-05-15T05:06:47;0.90;;;0.30;;
23250;SDS011;11794;49.730;10.088;2023-05-15T05:09:12;1.20;;;0.30;;
23250;SDS011;11794;49.730;10.088;2023-05-15T05:11:39;3.33;;;0.43;;
23250;SDS011;11794;49.730;10.088;2023-05-15T05:14:08;1.20;;;0.47;;
23250;SDS011;11794;49.730;10.088;2023-05-15T05:16:37;0.65;;;0.22;;
23250;SDS011;11794;49.730;10.088;2023-05-15T05:19:03;1.13;;;0.40;;
23250;SDS011;11794;49.730;10.088;2023-05-15T05:21:29;2.33;;;0.63;;
23250;SDS011;11794;49.730;10.088;2023-05-15T05:23:56;1.27;;;0.30;;
23250;SDS011;11794;49.730;10.088;2023-05-15T05:26:21;1.25;;;0.65;;
23250;SDS011;11794;49.730;10.088;2023-05-15T05:28:47;1.27;;;0.40;;
23250;SDS011;11794;49.730;10.088;2023-05-15T05:31:13;1.80;;;0.25;;
23250;SDS011;11794;49.730;10.088;2023-05-15T05:33:38;1.20;;;0.23;;
23250;SDS011;11794;49.730;10.088;2023-05-15T05:36:04;1.58;;;0.47;;
23250;SDS011;11794;49.730;10.088;2023-05-15T05:38:30;1.20;;;0.40;;
23250;SDS011;11794;49.730;10.088;2023-05-15T05:40:56;1.23;;;0.30;;
23250;SDS011;11794;49.730;10.088;2023-05-15T05:43:21;1.15;;;0.40;;
23250;SDS011;11794;49.730;10.088;2023-05-15T05:45:49;1.95;;;0.50;;
23250;SDS011;11794;49.730;10.088;2023-05-15T05:48:14;1.70;;;0.63;;
23250;SDS011;11794;49.730;10.088;2023-05-15T05:50:40;1.17;;;0.40;;
23250;SDS011;11794;49.730;10.088;2023-05-15T05:53:06;1.80;;;0.40;;
23250;SDS011;11794;49.730;10.088;2023-05-15T05:55:31;2.65;;;0.50;;
23250;SDS011;11794;49.730;10.088;2023-05-15T05:57:57;2.93;;;0.60;;
23250;SDS011;11794;49.730;10.088;2023-05-15T06:00:23;2.60;;;0.80;;
23250;SDS011;11794;49.730;10.088;2023-05-15T06:02:50;1.77;;;0.68;;
23250;SDS011;11794;49.730;10.088;2023-05-15T06:05:22;3.05;;;0.77;;
23250;SDS011;11794;49.730;10.088;2023-05-15T06:07:51;1.05;;;0.38;;
23250;SDS011;11794;49.730;10.088;2023-05-15T06:10:17;3.42;;;0.82;;
23250;SDS011;11794;49.730;10.088;2023-05-15T06:12:43;1.93;;;0.50;;
23250;SDS011;11794;49.730;10.088;2023-05-15T06:15:09;1.67;;;0.35;;
23250;SDS011;11794;49.730;10.088;2023-05-15T06:17:35;1.52;;;0.60;;
23250;SDS011;11794;49.730;10.088;2023-05-15T06:20:01;2.08;;;0.30;;
23250;SDS011;11794;49.730;10.088;2023-05-15T06:22:29;2.72;;;0.57;;
23250;SDS011;11794;49.730;10.088;2023-05-15T06:24:56;1.85;;;0.50;;
23250;SDS011;11794;49.730;10.088;2023-05-15T06:27:23;2.07;;;0.63;;
23250;SDS011;11794;49.730;10.088;2023-05-15T06:29:50;2.42;;;0.60;;
23250;SDS011;11794;49.730;10.088;2023-05-15T06:32:16;1.85;;;0.65;;
23250;SDS011;11794;49.730;10.088;2023-05-15T06:34:41;2.70;;;0.90;;
23250;SDS011;11794;49.730;10.088;2023-05-15T06:37:07;1.63;;;0.73;;
23250;SDS011;11794;49.730;10.088;2023-05-15T06:39:32;2.70;;;0.52;;
23250;SDS011;11794;49.730;10.088;2023-05-15T06:41:58;2.37;;;0.67;;
23250;SDS011;11794;49.730;10.088;2023-05-15T06:44:25;5.63;;;1.20;;
23250;SDS011;11794;49.730;10.088;2023-05-15T06:46:51;2.05;;;0.50;;
23250;SDS011;11794;49.730;10.088;2023-05-15T06:49:17;2.77;;;0.97;;
23250;SDS011;11794;49.730;10.088;2023-05-15T06:51:42;2.43;;;0.93;;
23250;SDS011;11794;49.730;10.088;2023-05-15T06:54:08;2.72;;;0.40;;
23250;SDS011;11794;49.730;10.088;2023-05-15T06:56:33;2.47;;;0.90;;
23250;SDS011;11794;49.730;10.088;2023-05-15T06:58:59;1.23;;;0.33;;
23250;SDS011;11794;49.730;10.088;2023-05-15T07:01:24;4.55;;;0.90;;
23250;SDS011;11794;49.730;10.088;2023-05-15T07:03:50;2.13;;;0.50;;
23250;SDS011;11794;49.730;10.088;2023-05-15T07:06:15;3.00;;;0.77;;
23250;SDS011;11794;49.730;10.088;2023-05-15T07:08:41;1.87;;;0.43;;
23250;SDS011;11794;49.730;10.088;2023-05-15T07:11:06;2.83;;;0.73;;
23250;SDS011;11794;49.730;10.088;2023-05-15T07:13:32;5.03;;;1.02;;
23250;SDS011;11794;49.730;10.088;2023-05-15T07:15:58;1.93;;;0.63;;
23250;SDS011;11794;49.730;10.088;2023-05-15T07:18:24;4.57;;;1.13;;
23250;SDS011;11794;49.730;10.088;2023-05-15T07:20:49;2.30;;;0.60;;
23250;SDS011;11794;49.730;10.088;2023-05-15T07:23:15;2.08;;;0.65;;
23250;SDS011;11794;49.730;10.088;2023-05-15T07:25:40;2.93;;;0.90;;
23250;SDS011;11794;49.730;10.088;2023-05-15T07:28:06;5.13;;;0.87;;
23250;SDS011;11794;49.730;10.088;2023-05-15T07:30:31;2.08;;;0.60;;
23250;SDS011;11794;49.730;10.088;2023-05-15T07:32:57;1.90;;;0.70;;
23250;SDS011;11794;49.730;10.088;2023-05-15T07:35:24;2.93;;;0.90;;
23250;SDS011;11794;49.730;10.088;2023-05-15T07:37:49;2.80;;;0.85;;
23250;SDS011;11794;49.730;10.088;2023-05-15T07:40:15;3.43;;;1.10;;
23250;SDS011;11794;49.730;10.088;2023-05-15T07:42:42;3.17;;;0.80;;
23250;SDS011;11794;49.730;10.088;2023-05-15T07:45:08;2.90;;;0.73;;
23250;SDS011;11794;49.730;10.088;2023-05-15T07:47:34;2.87;;;0.90;;
23250;SDS011;11794;49.730;10.088;2023-05-15T07:49:59;2.35;;;0.70;;
23250;SDS011;11794;49.730;10.088;2023-05-15T07:52:25;2.65;;;0.73;;
23250;SDS011;11794;49.730;10.088;2023-05-15T07:54:51;2.63;;;0.83;;
23250;SDS011;11794;49.730;10.088;2023-05-15T07:57:16;2.37;;;0.70;;
23250;SDS011;11794;49.730;10.088;2023-05-15T07:59:42;3.00;;;0.82;;
23250;SDS011;11794;49.730;10.088;2023-05-15T08:02:07;2.13;;;0.67;;
23250;SDS011;11794;49.730;10.088;2023-05-15T08:04:33;2.75;;;0.90;;
23250;SDS011;11794;49.730;10.088;2023-05-15T08:06:58;3.80;;;1.10;;
23250;SDS011;11794;49.730;10.088;2023-05-15T08:09:24;2.33;;;0.77;;
23250;SDS011;11794;49.730;10.088;2023-05-15T08:11:49;4.43;;;0.80;;
23250;SDS011;11794;49.730;10.088;2023-05-15T08:14:15;2.50;;;0.83;;
23250;SDS011;11794;49.730;10.088;2023-05-15T08:16:40;3.70;;;1.00;;
23250;SDS011;11794;49.730;10.088;2023-05-15T08:19:06;4.07;;;1.20;;
23250;SDS011;11794;49.730;10.088;2023-05-15T08:21:32;3.63;;;0.90;;
23250;SDS011;11794;49.730;10.088;2023-05-15T08:23:58;2.50;;;0.68;;
23250;SDS011;11794;49.730;10.088;2023-05-15T08:26:24;2.90;;;0.80;;
23250;SDS011;11794;49.730;10.088;2023-05-15T08:28:50;3.33;;;1.10;;
23250;SDS011;11794;49.730;10.088;2023-05-15T08:31:16;3.03;;;0.90;;
23250;SDS011;11794;49.730;10.088;2023-05-15T08:33:41;3.53;;;1.20;;
23250;SDS011;11794;49.730;10.088;2023-05-15T08:36:07;3.77;;;1.40;;
23250;SDS011;11794;49.730;10.088;2023-05-15T08:38:33;3.20;;;1.08;;
23250;SDS011;11794;49.730;10.088;2023-05-15T08:43:47;4.05;;;1.58;;
23250;SDS011;11794;49.730;10.088;2023-05-15T08:46:16;3.75;;;1.20;;
23250;SDS011;11794;49.730;10.088;2023-05-15T08:48:42;3.67;;;1.42;;
23250;SDS011;11794;49.730;10.088;2023-05-15T08:51:08;3.87;;;1.43;;
23250;SDS011;11794;49.730;10.088;2023-05-15T08:53:35;4.43;;;1.33;;
23250;SDS011;11794;49.730;10.088;2023-05-15T08:56:00;4.35;;;1.75;;
23250;SDS011;11794;49.730;10.088;2023-05-15T08:58:26;3.75;;;1.23;;
23250;SDS011;11794;49.730;10.088;2023-05-15T09:00:52;4.25;;;1.70;;
23250;SDS011;11794;49.730;10.088;2023-05-15T09:03:19;3.50;;;1.10;;
23250;SDS011;11794;49.730;10.088;2023-05-15T09:05:47;4.07;;;1.37;;
23250;SDS011;11794;49.730;10.088;2023-05-15T09:08:16;4.30;;;1.63;;
23250;SDS011;11794;49.730;10.088;2023-05-15T09:10:43;3.85;;;1.38;;
23250;SDS011;11794;49.730;10.088;2023-05-15T09:13:09;4.10;;;1.55;;
23250;SDS011;11794;49.730;10.088;2023-05-15T09:15:36;5.43;;;1.70;;
23250;SDS011;11794;49.730;10.088;2023-05-15T09:18:02;4.28;;;1.85;;
23250;SDS011;11794;49.730;10.088;2023-05-15T09:20:29;3.40;;;1.40;;
23250;SDS011;11794;49.730;10.088;2023-05-15T09:23:00;4.00;;;1.60;;
23250;SDS011;11794;49.730;10.088;2023-05-15T09:25:37;3.05;;;1.20;;
23250;SDS011;11794;49.730;10.088;2023-05-15T09:28:26;4.30;;;1.53;;
23250;SDS011;11794;49.730;10.088;2023-05-15T09:30:55;4.00;;;1.57;;
23250;SDS011;11794;49.730;10.088;2023-05-15T09:33:35;3.97;;;1.13;;
23250;SDS011;11794;49.730;10.088;2023-05-15T09:36:02;5.05;;;1.70;;
23250;SDS011;11794;49.730;10.088;2023-05-15T09:38:31;5.75;;;2.00;;
23250;SDS011;11794;49.730;10.088;2023-05-15T09:41:03;4.38;;;1.73;;
23250;SDS011;11794;49.730;10.088;2023-05-15T09:43:34;3.80;;;1.58;;
23250;SDS011;11794;49.730;10.088;2023-05-15T09:46:04;3.63;;;1.48;;
23250;SDS011;11794;49.730;10.088;2023-05-15T09:48:30;3.80;;;1.48;;
23250;SDS011;11794;49.730;10.088;2023-05-15T09:50:56;3.67;;;1.50;;
23250;SDS011;11794;49.730;10.088;2023-05-15T09:53:22;4.43;;;1.47;;
23250;SDS011;11794;49.730;10.088;2023-05-15T09:55:48;4.32;;;1.55;;
23250;SDS011;11794;49.730;10.088;2023-05-15T09:58:15;4.00;;;1.55;;
23250;SDS011;11794;49.730;10.088;2023-05-15T10:00:42;4.80;;;1.73;;
23250;SDS011;11794;49.730;10.088;2023-05-15T10:03:08;3.90;;;1.55;;
23250;SDS011;11794;49.730;10.088;2023-05-15T10:05:34;4.57;;;1.80;;
23250;SDS011;11794;49.730;10.088;2023-05-15T10:08:00;9.90;;;1.63;;
23250;SDS011;11794;49.730;10.088;2023-05-15T10:10:27;5.47;;;1.58;;
23250;SDS011;11794;49.730;10.088;2023-05-15T10:12:54;3.30;;;1.10;;
23250;SDS011;11794;49.730;10.088;2023-05-15T10:15:25;4.28;;;1.40;;
23250;SDS011;11794;49.730;10.088;2023-05-15T10:17:52;5.05;;;1.70;;
23250;SDS011;11794;49.730;10.088;2023-05-15T10:20:21;6.35;;;2.05;;
23250;SDS011;11794;49.730;10.088;2023-05-15T10:22:48;5.47;;;1.60;;
23250;SDS011;11794;49.730;10.088;2023-05-15T10:27:45;3.67;;;1.27;;
23250;SDS011;11794;49.730;10.088;2023-05-15T10:30:11;2.97;;;1.10;;
23250;SDS011;11794;49.730;10.088;2023-05-15T10:32:40;3.67;;;1.20;;
23250;SDS011;11794;49.730;10.088;2023-05-15T10:35:08;4.30;;;1.50;;
23250;SDS011;11794;49.730;10.088;2023-05-15T10:37:35;4.10;;;1.67;;
23250;SDS011;11794;49.730;10.088;2023-05-15T10:40:02;4.47;;;1.48;;
23250;SDS011;11794;49.730;10.088;2023-05-15T10:42:29;4.22;;;1.67;;
23250;SDS011;11794;49.730;10.088;2023-05-15T10:44:55;3.67;;;1.45;;
23250;SDS011;11794;49.730;10.088;2023-05-15T10:47:24;5.68;;;1.83;;
23250;SDS011;11794;49.730;10.088;2023-05-15T10:49:50;4.75;;;1.60;;
23250;SDS011;11794;49.730;10.088;2023-05-15T10:52:16;3.33;;;1.05;;
23250;SDS011;11794;49.730;10.088;2023-05-15T10:54:42;4.73;;;1.30;;
23250;SDS011;11794;49.730;10.088;2023-05-15T10:57:07;3.73;;;1.00;;
23250;SDS011;11794;49.730;10.088;2023-05-15T10:59:34;3.17;;;1.07;;
23250;SDS011;11794;49.730;10.088;2023-05-15T11:04:45;3.92;;;0.80;;
23250;SDS011;11794;49.730;10.088;2023-05-15T11:07:12;4.27;;;1.50;;
23250;SDS011;11794;49.730;10.088;2023-05-15T11:09:39;2.40;;;0.75;;
23250;SDS011;11794;49.730;10.088;2023-05-15T11:12:06;2.40;;;0.60;;
23250;SDS011;11794;49.730;10.088;2023-05-15T11:14:37;2.55;;;0.80;;
23250;SDS011;11794;49.730;10.088;2023-05-15T11:17:08;3.95;;;1.00;;
23250;SDS011;11794;49.730;10.088;2023-05-15T11:19:53;2.72;;;0.80;;
23250;SDS011;11794;49.730;10.088;2023-05-15T11:22:25;3.65;;;0.73;;
23250;SDS011;11794;49.730;10.088;2023-05-15T11:24:54;2.35;;;0.60;;
23250;SDS011;11794;49.730;10.088;2023-05-15T11:27:28;2.87;;;0.60;;
23250;SDS011;11794;49.730;10.088;2023-05-15T11:30:10;1.13;;;0.33;;
23250;SDS011;11794;49.730;10.088;2023-05-15T11:35:41;4.15;;;0.93;;
23250;SDS011;11794;49.730;10.088;2023-05-15T11:40:44;3.55;;;0.90;;
23250;SDS011;11794;49.730;10.088;2023-05-15T11:43:22;2.92;;;0.82;;
23250;SDS011;11794;49.730;10.088;2023-05-15T11:45:58;5.43;;;1.00;;
23250;SDS011;11794;49.730;10.088;2023-05-15T11:48:34;1.98;;;0.90;;
23250;SDS011;11794;49.730;10.088;2023-05-15T11:51:07;2.13;;;0.60;;
23250;SDS011;11794;49.730;10.088;2023-05-15T11:53:39;1.90;;;0.53;;
23250;SDS011;11794;49.730;10.088;2023-05-15T11:56:06;2.63;;;0.93;;
23250;SDS011;11794;49.730;10.088;2023-05-15T11:58:48;2.17;;;0.68;;
23250;SDS011;11794;49.730;10.088;2023-05-15T12:01:19;2.50;;;0.85;;
23250;SDS011;11794;49.730;10.088;2023-05-15T12:03:47;2.63;;;0.95;;
23250;SDS011;11794;49.730;10.088;2023-05-15T12:06:15;2.33;;;0.80;;
23250;SDS011;11794;49.730;10.088;2023-05-15T12:08:41;4.23;;;1.37;;
23250;SDS011;11794;49.730;10.088;2023-05-15T12:11:07;2.83;;;0.93;;
23250;SDS011;11794;49.730;10.088;2023-05-15T12:13:35;3.42;;;1.25;;
23250;SDS011;11794;49.730;10.088;2023-05-15T12:16:03;3.40;;;1.10;;
23250;SDS011;11794;49.730;10.088;2023-05-15T12:18:29;3.45;;;1.15;;
23250;SDS011;11794;49.730;10.088;2023-05-15T12:20:56;2.95;;;0.88;;
23250;SDS011;11794;49.730;10.088;2023-05-15T12:23:22;3.03;;;0.80;;
23250;SDS011;11794;49.730;10.088;2023-05-15T12:25:50;4.18;;;1.02;;
23250;SDS011;11794;49.730;10.088;2023-05-15T12:28:20;3.63;;;0.90;;
23250;SDS011;11794;49.730;10.088;2023-05-15T12:30:46;2.80;;;0.80;;
23250;SDS011;11794;49.730;10.088;2023-05-15T12:33:13;3.15;;;1.00;;
23250;SDS011;11794;49.730;10.088;2023-05-15T12:35:43;2.10;;;0.60;;
23250;SDS011;11794;49.730;10.088;2023-05-15T12:38:13;3.75;;;1.08;;
23250;SDS011;11794;49.730;10.088;2023-05-15T12:40:40;3.30;;;0.75;;
23250;SDS011;11794;49.730;10.088;2023-05-15T12:43:09;3.10;;;1.00;;
23250;SDS011;11794;49.730;10.088;2023-05-15T12:45:36;2.53;;;0.70;;
23250;SDS011;11794;49.730;10.088;2023-05-15T12:48:03;3.45;;;1.20;;
23250;SDS011;11794;49.730;10.088;2023-05-15T12:50:31;2.75;;;0.70;;
23250;SDS011;11794;49.730;10.088;2023-05-15T12:52:59;2.40;;;0.60;;
23250;SDS011;11794;49.730;10.088;2023-05-15T12:55:30;3.20;;;0.70;;
23250;SDS011;11794;49.730;10.088;2023-05-15T12:57:57;3.47;;;1.00;;
23250;SDS011;11794;49.730;10.088;2023-05-15T13:00:27;4.45;;;0.80;;
23250;SDS011;11794;49.730;10.088;2023-05-15T13:02:53;2.88;;;0.85;;
23250;SDS011;11794;49.730;10.088;2023-05-15T13:05:24;3.55;;;1.08;;
23250;SDS011;11794;49.730;10.088;2023-05-15T13:07:50;1.80;;;0.53;;
23250;SDS011;11794;49.730;10.088;2023-05-15T13:10:18;2.60;;;0.53;;
23250;SDS011;11794;49.730;10.088;2023-05-15T13:12:48;2.72;;;0.90;;
23250;SDS011;11794;49.730;10.088;2023-05-15T13:15:21;2.70;;;0.80;;
23250;SDS011;11794;49.730;10.088;2023-05-15T13:17:53;2.97;;;0.98;;
23250;SDS011;11794;49.730;10.088;2023-05-15T13:20:31;2.25;;;0.70;;
23250;SDS011;11794;49.730;10.088;2023-05-15T13:23:02;3.08;;;0.80;;
23250;SDS011;11794;49.730;10.088;2023-05-15T13:25:28;3.17;;;1.15;;
23250;SDS011;11794;49.730;10.088;2023-05-15T13:27:56;2.70;;;0.80;;
23250;SDS011;11794;49.730;10.088;2023-05-15T13:30:22;2.85;;;0.85;;
23250;SDS011;11794;49.730;10.088;2023-05-15T13:32:48;2.33;;;0.83;;
23250;SDS011;11794;49.730;10.088;2023-05-15T13:35:13;2.93;;;0.83;;
23250;SDS011;11794;49.730;10.088;2023-05-15T13:37:39;4.37;;;0.97;;
23250;SDS011;11794;49.730;10.088;2023-05-15T13:40:06;2.60;;;1.00;;
23250;SDS011;11794;49.730;10.088;2023-05-15T13:42:36;3.85;;;1.10;;
23250;SDS011;11794;49.730;10.088;2023-05-15T13:45:12;3.15;;;1.08;;
23250;SDS011;11794;49.730;10.088;2023-05-15T13:47:39;3.55;;;1.27;;
23250;SDS011;11794;49.730;10.088;2023-05-15T13:50:09;3.20;;;1.20;;
23250;SDS011;11794;49.730;10.088;2023-05-15T13:52:36;3.75;;;1.30;;
23250;SDS011;11794;49.730;10.088;2023-05-15T13:55:03;4.03;;;1.50;;
23250;SDS011;11794;49.730;10.088;2023-05-15T13:57:29;3.40;;;1.43;;
23250;SDS011;11794;49.730;10.088;2023-05-15T13:59:55;3.60;;;1.20;;
23250;SDS011;11794;49.730;10.088;2023-05-15T14:02:20;3.67;;;1.08;;
23250;SDS011;11794;49.730;10.088;2023-05-15T14:04:50;3.40;;;1.07;;
23250;SDS011;11794;49.730;10.088;2023-05-15T14:07:16;5.22;;;1.20;;
23250;SDS011;11794;49.730;10.088;2023-05-15T14:09:41;3.10;;;1.10;;
23250;SDS011;11794;49.730;10.088;2023-05-15T14:12:07;3.57;;;1.00;;
23250;SDS011;11794;49.730;10.088;2023-05-15T14:14:33;4.05;;;1.17;;
23250;SDS011;11794;49.730;10.088;2023-05-15T14:16:59;3.43;;;1.30;;
23250;SDS011;11794;49.730;10.088;2023-05-15T14:19:25;3.67;;;1.13;;
23250;SDS011;11794;49.730;10.088;2023-05-15T14:21:50;3.17;;;1.30;;
23250;SDS011;11794;49.730;10.088;2023-05-15T14:24:16;2.85;;;0.80;;
23250;SDS011;11794;49.730;10.088;2023-05-15T14:26:41;3.60;;;0.87;;
23250;SDS011;11794;49.730;10.088;2023-05-15T14:29:08;3.42;;;1.40;;
23250;SDS011;11794;49.730;10.088;2023-05-15T14:31:33;3.63;;;1.30;;
23250;SDS011;11794;49.730;10.088;2023-05-15T14:33:59;4.88;;;1.30;;
23250;SDS011;11794;49.730;10.088;2023-05-15T14:36:25;4.07;;;1.40;;
23250;SDS011;11794;49.730;10.088;2023-05-15T14:38:50;3.42;;;1.08;;
23250;SDS011;11794;49.730;10.088;2023-05-15T14:41:16;4.33;;;1.83;;
23250;SDS011;11794;49.730;10.088;2023-05-15T14:43:41;4.63;;;2.03;;
23250;SDS011;11794;49.730;10.088;2023-05-15T14:46:07;3.92;;;1.67;;
23250;SDS011;11794;49.730;10.088;2023-05-15T14:48:33;3.43;;;1.23;;
23250;SDS011;11794;49.730;10.088;2023-05-15T14:50:59;3.33;;;1.10;;
23250;SDS011;11794;49.730;10.088;2023-05-15T14:53:25;3.47;;;1.20;;
23250;SDS011;11794;49.730;10.088;2023-05-15T14:55:51;3.20;;;0.80;;
23250;SDS011;11794;49.730;10.088;2023-05-15T14:58:18;1.80;;;0.65;;